sensor_id;sensor_type;location;lat;lon;timestamp;pressure;altitude;pressure_sealevel;temperature;humidity
49055;BME280;35405;52.344;14.530;2023-03-16T06:08:37;101215.44;;;-1.93;100.00
49055;BME280;35405;52.344;14.530;2023-03-16T06:11:03;101207.31;;;-1.85;100.00
49055;BME280;35405;52.344;14.530;2023-03-16T06:13:28;101212.66;;;-1.78;100.00
49055;BME280;35405;52.344;14.530;2023-03-16T06:15:54;101215.19;;;-1.70;100.00
49055;BME280;35405;52.344;14.530;2023-03-16T06:18:19;101206.63;;;-1.58;100.00
49055;BME280;35405;52.344;14.530;2023-03-16T06:20:45;101214.66;;;-1.52;100.00
49055;BME280;35405;52.344;14.530;2023-03-16T06:23:11;101217.75;;;-1.42;100.00
49055;BME280;35405;52.344;14.530;2023-03-16T06:25:36;101215.75;;;-1.33;100.00
49055;BME280;35405;52.344;14.530;2023-03-16T06:28:01;101220.09;;;-1.25;100.00
49055;BME280;35405;52.344;14.530;2023-03-16T06:30:26;101224.00;;;-1.21;100.00
49055;BME280;35405;52.344;14.530;2023-03-16T06:32:52;101220.94;;;-1.18;100.00
49055;BME280;35405;52.344;14.530;2023-03-16T06:35:17;101229.97;;;-1.12;100.00
49055;BME280;35405;52.344;14.530;2023-03-16T06:37:42;101229.78;;;-1.11;100.00
49055;BME280;35405;52.344;14.530;2023-03-16T06:40:08;101222.81;;;-1.05;100.00
49055;BME280;35405;52.344;14.530;2023-03-16T06:42:34;101237.66;;;-0.96;100.00
49055;BME280;35405;52.344;14.530;2023-03-16T06:44:59;101239.28;;;-0.88;100.00
49055;BME280;35405;52.344;14.530;2023-03-16T06:47:24;101244.22;;;-0.85;100.00
49055;BME280;35405;52.344;14.530;2023-03-16T06:49:49;101247.75;;;-0.78;100.00
49055;BME280;35405;52.344;14.530;2023-03-16T06:52:15;101259.25;;;-0.71;100.00
49055;BME280;35405;52.344;14.530;2023-03-16T06:54:41;101267.09;;;-0.63;100.00
49055;BME280;35405;52.344;14.530;2023-03-16T06:57:06;101269.94;;;-0.58;100.00
49055;BME280;35405;52.344;14.530;2023-03-16T06:59:31;101286.19;;;-0.53;100.00
49055;BME280;35405;52.344;14.530;2023-03-16T07:01:57;101290.72;;;-0.47;100.00
49055;BME280;35405;52.344;14.530;2023-03-16T07:04:22;101304.50;;;-0.43;100.00
49055;BME280;35405;52.344;14.530;2023-03-16T07:06:47;101305.34;;;-0.36;100.00
49055;BME280;35405;52.344;14.530;2023-03-16T07:09:13;101309.66;;;-0.28;100.00
49055;BME280;35405;52.344;14.530;2023-03-16T07:11:38;101318.13;;;-0.18;100.00
49055;BME280;35405;52.344;14.530;2023-03-16T07:14:03;101324.91;;;-0.09;100.00
49055;BME280;35405;52.344;14.530;2023-03-16T07:16:29;101326.53;;;0.06;100.00
49055;BME280;35405;52.344;14.530;2023-03-16T07:18:54;101325.28;;;0.15;100.00
49055;BME280;35405;52.344;14.530;2023-03-16T07:21:19;101319.13;;;0.28;100.00
49055;BME280;35405;52.344;14.530;2023-03-16T07:23:44;101316.66;;;0.39;100.00
49055;BME280;35405;52.344;14.530;2023-03-16T07:26:10;101323.00;;;0.45;100.00
49055;BME280;35405;52.344;14.530;2023-03-16T07:28:36;101322.78;;;0.53;100.00
49055;BME280;35405;52.344;14.530;2023-03-16T07:31:01;101316.56;;;0.66;100.00
49055;BME280;35405;52.344;14.530;2023-03-16T07:33:26;101321.50;;;0.76;100.00
49055;BME280;35405;52.344;14.530;2023-03-16T07:35:52;101319.63;;;0.83;100.00
49055;BME280;35405;52.344;14.530;2023-03-16T07:38:18;101315.84;;;0.97;100.00
49055;BME280;35405;52.344;14.530;2023-03-16T07:40:43;101332.09;;;1.02;100.00
49055;BME280;35405;52.344;14.530;2023-03-16T07:43:09;101327.56;;;1.09;100.00
49055;BME280;35405;52.344;14.530;2023-03-16T07:45:34;101339.28;;;1.15;100.00
49055;BME280;35405;52.344;14.530;2023-03-16T07:47:59;101350.78;;;1.22;100.00
49055;BME280;35405;52.344;14.530;2023-03-16T07:50:25;101340.44;;;1.26;100.00
49055;BME280;35405;52.344;14.530;2023-03-16T07:52:51;101345.00;;;1.25;100.00
49055;BME280;35405;52.344;14.530;2023-03-16T07:55:16;101361.47;;;1.29;100.00
49055;BME280;35405;52.344;14.530;2023-03-16T07:57:41;101366.56;;;1.37;100.00
49055;BME280;35405;52.344;14.530;2023-03-16T08:00:11;101382.59;;;1.50;100.00
49055;BME280;35405;52.344;14.530;2023-03-16T08:02:38;101386.69;;;1.53;100.00
49055;BME280;35405;52.344;14.530;2023-03-16T08:05:03;101404.41;;;1.60;100.00
49055;BME280;35405;52.344;14.530;2023-03-16T08:07:28;101414.91;;;1.69;100.00
49055;BME280;35405;52.344;14.530;2023-03-16T08:09:53;101420.78;;;1.84;100.00
49055;BME280;35405;52.344;14.530;2023-03-16T08:12:18;101416.97;;;1.98;100.00
49055;BME280;35405;52.344;14.530;2023-03-16T08:14:44;101431.31;;;2.17;100.00
49055;BME280;35405;52.344;14.530;2023-03-16T08:17:10;101437.00;;;2.27;100.00
49055;BME280;35405;52.344;14.530;2023-03-16T08:19:36;101433.63;;;2.39;100.00
49055;BME280;35405;52.344;14.530;2023-03-16T08:22:01;101438.09;;;2.45;100.00
49055;BME280;35405;52.344;14.530;2023-03-16T08:24:27;101445.84;;;2.60;100.00
49055;BME280;35405;52.344;14.530;2023-03-16T08:26:53;101455.91;;;2.64;100.00
49055;BME280;35405;52.344;14.530;2023-03-16T08:29:18;101450.25;;;2.72;100.00
49055;BME280;35405;52.344;14.530;2023-03-16T08:41:00;101466.00;;;3.12;100.00
49055;BME280;35405;52.344;14.530;2023-03-16T08:43:26;101467.78;;;3.18;100.00
49055;BME280;35405;52.344;14.530;2023-03-16T08:45:52;101467.44;;;3.33;100.00
49055;BME280;35405;52.344;14.530;2023-03-16T08:48:18;101468.56;;;3.44;100.00
49055;BME280;35405;52.344;14.530;2023-03-16T08:50:44;101468.94;;;3.48;100.00
49055;BME280;35405;52.344;14.530;2023-03-16T08:53:10;101460.84;;;3.48;100.00
49055;BME280;35405;52.344;14.530;2023-03-16T08:55:38;101464.53;;;3.53;100.00
49055;BME280;35405;52.344;14.530;2023-03-16T08:58:05;101464.06;;;3.56;100.00
49055;BME280;35405;52.344;14.530;2023-03-16T09:00:30;101478.03;;;3.65;100.00
49055;BME280;35405;52.344;14.530;2023-03-16T09:02:56;101465.75;;;3.69;100.00
49055;BME280;35405;52.344;14.530;2023-03-16T09:05:21;101458.44;;;3.76;100.00
49055;BME280;35405;52.344;14.530;2023-03-16T09:07:47;101454.28;;;3.92;100.00
49055;BME280;35405;52.344;14.530;2023-03-16T09:10:12;101466.53;;;4.06;100.00
49055;BME280;35405;52.344;14.530;2023-03-16T09:12:40;101473.78;;;4.18;100.00
49055;BME280;35405;52.344;14.530;2023-03-16T09:15:10;101476.63;;;4.23;100.00
49055;BME280;35405;52.344;14.530;2023-03-16T09:17:36;101485.53;;;4.23;100.00
49055;BME280;35405;52.344;14.530;2023-03-16T09:20:02;101481.09;;;4.29;100.00
49055;BME280;35405;52.344;14.530;2023-03-16T09:22:29;101488.84;;;4.37;100.00
49055;BME280;35405;52.344;14.530;2023-03-16T09:24:54;101490.13;;;4.34;100.00
49055;BME280;35405;52.344;14.530;2023-03-16T09:27:20;101494.50;;;4.47;100.00
49055;BME280;35405;52.344;14.530;2023-03-16T09:29:49;101500.50;;;4.61;100.00
49055;BME280;35405;52.344;14.530;2023-03-16T09:32:16;101511.78;;;4.70;100.00
49055;BME280;35405;52.344;14.530;2023-03-16T09:34:42;101510.50;;;4.72;100.00
49055;BME280;35405;52.344;14.530;2023-03-16T09:37:08;101504.38;;;4.77;100.00
49055;BME280;35405;52.344;14.530;2023-03-16T09:39:34;101508.25;;;4.81;100.00
49055;BME280;35405;52.344;14.530;2023-03-16T09:42:04;101519.38;;;4.73;100.00
49055;BME280;35405;52.344;14.530;2023-03-16T09:44:55;101511.78;;;4.81;100.00
49055;BME280;35405;52.344;14.530;2023-03-16T09:47:24;101515.66;;;4.97;100.00
49055;BME280;35405;52.344;14.530;2023-03-16T09:49:51;101521.16;;;5.14;100.00
49055;BME280;35405;52.344;14.530;2023-03-16T09:57:27;101524.19;;;5.41;100.00
49055;BME280;35405;52.344;14.530;2023-03-16T09:59:54;101528.31;;;5.44;100.00
49055;BME280;35405;52.344;14.530;2023-03-16T10:02:38;101529.56;;;5.53;100.00
49055;BME280;35405;52.344;14.530;2023-03-16T10:12:51;101532.03;;;5.66;100.00
49055;BME280;35405;52.344;14.530;2023-03-16T10:15:18;101530.81;;;5.74;100.00
49055;BME280;35405;52.344;14.530;2023-03-16T10:17:55;101521.56;;;5.82;100.00
49055;BME280;35405;52.344;14.530;2023-03-16T10:20:22;101529.28;;;5.90;100.00
49055;BME280;35405;52.344;14.530;2023-03-16T10:22:48;101521.50;;;6.05;100.00
49055;BME280;35405;52.344;14.530;2023-03-16T10:27:44;101528.22;;;6.03;100.00
49055;BME280;35405;52.344;14.530;2023-03-16T10:30:21;101541.81;;;6.08;100.00
49055;BME280;35405;52.344;14.530;2023-03-16T10:32:47;101534.88;;;6.12;100.00
49055;BME280;35405;52.344;14.530;2023-03-16T10:37:47;101540.06;;;6.30;100.00
49055;BME280;35405;52.344;14.530;2023-03-16T10:40:13;101549.31;;;6.34;100.00
49055;BME280;35405;52.344;14.530;2023-03-16T10:42:38;101544.66;;;6.30;100.00
49055;BME280;35405;52.344;14.530;2023-03-16T10:45:04;101548.75;;;6.32;100.00
49055;BME280;35405;52.344;14.530;2023-03-16T10:47:30;101538.28;;;6.36;100.00
49055;BME280;35405;52.344;14.530;2023-03-16T10:49:56;101549.69;;;6.38;100.00
49055;BME280;35405;52.344;14.530;2023-03-16T10:52:37;101545.16;;;6.27;100.00
49055;BME280;35405;52.344;14.530;2023-03-16T10:55:11;101545.66;;;6.40;100.00
49055;BME280;35405;52.344;14.530;2023-03-16T10:57:40;101540.78;;;6.54;100.00
49055;BME280;35405;52.344;14.530;2023-03-16T11:02:35;101537.75;;;6.51;100.00
49055;BME280;35405;52.344;14.530;2023-03-16T11:05:14;101541.25;;;6.51;100.00
49055;BME280;35405;52.344;14.530;2023-03-16T11:07:47;101539.09;;;6.65;100.00
49055;BME280;35405;52.344;14.530;2023-03-16T11:15:37;101542.59;;;6.66;100.00
49055;BME280;35405;52.344;14.530;2023-03-16T11:18:04;101534.31;;;6.55;100.00
49055;BME280;35405;52.344;14.530;2023-03-16T11:20:31;101541.44;;;6.45;100.00
49055;BME280;35405;52.344;14.530;2023-03-16T11:22:58;101539.22;;;6.58;100.00
49055;BME280;35405;52.344;14.530;2023-03-16T11:25:58;101530.00;;;6.71;100.00
49055;BME280;35405;52.344;14.530;2023-03-16T11:28:31;101531.13;;;6.75;100.00
49055;BME280;35405;52.344;14.530;2023-03-16T11:33:23;101537.03;;;6.72;100.00
49055;BME280;35405;52.344;14.530;2023-03-16T11:35:54;101531.47;;;6.62;100.00
49055;BME280;35405;52.344;14.530;2023-03-16T11:40:57;101533.09;;;6.80;100.00
49055;BME280;35405;52.344;14.530;2023-03-16T11:46:14;101531.03;;;7.04;100.00
49055;BME280;35405;52.344;14.530;2023-03-16T11:48:41;101527.44;;;7.15;100.00
49055;BME280;35405;52.344;14.530;2023-03-16T11:56:32;101518.09;;;7.06;100.00
49055;BME280;35405;52.344;14.530;2023-03-16T12:01:53;101518.50;;;7.15;100.00
49055;BME280;35405;52.344;14.530;2023-03-16T12:04:38;101516.69;;;7.20;100.00
49055;BME280;35405;52.344;14.530;2023-03-16T12:07:12;101507.13;;;6.96;100.00
49055;BME280;35405;52.344;14.530;2023-03-16T12:14:40;101505.25;;;7.13;100.00
49055;BME280;35405;52.344;14.530;2023-03-16T12:22:12;101498.84;;;7.19;100.00
49055;BME280;35405;52.344;14.530;2023-03-16T12:24:41;101504.28;;;7.24;100.00
49055;BME280;35405;52.344;14.530;2023-03-16T12:27:09;101508.28;;;7.39;100.00
49055;BME280;35405;52.344;14.530;2023-03-16T12:30:00;101496.78;;;7.48;100.00
49055;BME280;35405;52.344;14.530;2023-03-16T12:32:30;101500.97;;;7.39;100.00
49055;BME280;35405;52.344;14.530;2023-03-16T12:42:56;101500.31;;;7.10;100.00
49055;BME280;35405;52.344;14.530;2023-03-16T12:45:31;101500.19;;;7.22;100.00
49055;BME280;35405;52.344;14.530;2023-03-16T12:48:15;101496.44;;;7.23;100.00
49055;BME280;35405;52.344;14.530;2023-03-16T12:50:48;101495.63;;;7.22;98.93
49055;BME280;35405;52.344;14.530;2023-03-16T12:53:24;101490.63;;;7.14;87.70
49055;BME280;35405;52.344;14.530;2023-03-16T12:55:51;101502.34;;;7.20;93.64
49055;BME280;35405;52.344;14.530;2023-03-16T12:58:16;101500.53;;;7.25;95.05
49055;BME280;35405;52.344;14.530;2023-03-16T13:00:42;101488.50;;;7.16;99.67
49055;BME280;35405;52.344;14.530;2023-03-16T13:03:12;101488.25;;;7.01;99.01
49055;BME280;35405;52.344;14.530;2023-03-16T13:05:43;101489.59;;;6.98;94.13
49055;BME280;35405;52.344;14.530;2023-03-16T13:08:10;101490.31;;;7.10;97.53
49055;BME280;35405;52.344;14.530;2023-03-16T13:10:37;101484.22;;;7.20;100.00
49055;BME280;35405;52.344;14.530;2023-03-16T13:13:11;101487.66;;;7.16;99.19
49055;BME280;35405;52.344;14.530;2023-03-16T13:15:39;101488.06;;;7.24;100.00
49055;BME280;35405;52.344;14.530;2023-03-16T13:20:53;101480.94;;;7.18;92.72
49055;BME280;35405;52.344;14.530;2023-03-16T13:25:44;101490.53;;;7.26;96.19
49055;BME280;35405;52.344;14.530;2023-03-16T13:28:11;101486.84;;;7.15;100.00
49055;BME280;35405;52.344;14.530;2023-03-16T13:30:37;101487.44;;;7.00;100.00
49055;BME280;35405;52.344;14.530;2023-03-16T13:35:36;101478.88;;;6.86;97.37
49055;BME280;35405;52.344;14.530;2023-03-16T13:38:05;101471.50;;;6.82;99.42
49055;BME280;35405;52.344;14.530;2023-03-16T13:40:31;101466.66;;;6.84;90.57
49055;BME280;35405;52.344;14.530;2023-03-16T13:42:57;101465.91;;;6.88;91.41
49055;BME280;35405;52.344;14.530;2023-03-16T13:45:26;101463.63;;;6.80;92.71
49055;BME280;35405;52.344;14.530;2023-03-16T13:47:53;101469.59;;;6.82;97.02
49055;BME280;35405;52.344;14.530;2023-03-16T13:50:19;101463.97;;;6.84;93.12
49055;BME280;35405;52.344;14.530;2023-03-16T13:52:52;101466.41;;;6.85;97.59
49055;BME280;35405;52.344;14.530;2023-03-16T13:55:20;101457.16;;;6.98;96.60
49055;BME280;35405;52.344;14.530;2023-03-16T13:57:47;101461.56;;;6.87;100.00
49055;BME280;35405;52.344;14.530;2023-03-16T14:00:22;101454.38;;;6.76;97.75
49055;BME280;35405;52.344;14.530;2023-03-16T14:02:56;101459.03;;;6.81;96.10
49055;BME280;35405;52.344;14.530;2023-03-16T14:05:33;101445.63;;;6.86;94.87
49055;BME280;35405;52.344;14.530;2023-03-16T14:07:59;101448.22;;;6.81;95.09
49055;BME280;35405;52.344;14.530;2023-03-16T14:10:26;101443.63;;;6.81;93.56
49055;BME280;35405;52.344;14.530;2023-03-16T14:12:54;101453.06;;;6.96;92.93
49055;BME280;35405;52.344;14.530;2023-03-16T14:15:20;101455.75;;;6.96;90.16
49055;BME280;35405;52.344;14.530;2023-03-16T14:17:46;101445.63;;;6.86;92.31
49055;BME280;35405;52.344;14.530;2023-03-16T14:20:23;101443.31;;;6.78;89.90
49055;BME280;35405;52.344;14.530;2023-03-16T14:22:52;101435.94;;;6.73;95.21
49055;BME280;35405;52.344;14.530;2023-03-16T14:25:18;101438.63;;;6.73;95.68
49055;BME280;35405;52.344;14.530;2023-03-16T14:27:46;101440.34;;;6.79;95.19
49055;BME280;35405;52.344;14.530;2023-03-16T14:30:15;101434.72;;;6.81;94.80
49055;BME280;35405;52.344;14.530;2023-03-16T14:32:58;101431.81;;;6.87;97.84
49055;BME280;35405;52.344;14.530;2023-03-16T14:35:25;101436.00;;;6.95;99.43
49055;BME280;35405;52.344;14.530;2023-03-16T14:40:54;101433.63;;;6.82;93.56
49055;BME280;35405;52.344;14.530;2023-03-16T14:43:20;101421.88;;;6.71;92.62
49055;BME280;35405;52.344;14.530;2023-03-16T14:45:49;101423.50;;;6.72;95.81
49055;BME280;35405;52.344;14.530;2023-03-16T14:48:16;101425.78;;;6.80;96.59
49055;BME280;35405;52.344;14.530;2023-03-16T14:50:44;101413.50;;;6.73;94.38
49055;BME280;35405;52.344;14.530;2023-03-16T14:53:11;101410.22;;;6.71;97.04
49055;BME280;35405;52.344;14.530;2023-03-16T14:55:36;101407.94;;;6.62;98.24
49055;BME280;35405;52.344;14.530;2023-03-16T14:58:02;101412.78;;;6.60;95.51
49055;BME280;35405;52.344;14.530;2023-03-16T15:00:28;101409.41;;;6.70;94.73
49055;BME280;35405;52.344;14.530;2023-03-16T15:02:58;101418.41;;;6.76;92.45
49055;BME280;35405;52.344;14.530;2023-03-16T15:05:34;101420.72;;;6.67;95.13
49055;BME280;35405;52.344;14.530;2023-03-16T15:08:00;101415.47;;;6.60;97.18
49055;BME280;35405;52.344;14.530;2023-03-16T15:10:28;101416.28;;;6.61;100.00
49055;BME280;35405;52.344;14.530;2023-03-16T15:12:54;101408.50;;;6.64;94.38
49055;BME280;35405;52.344;14.530;2023-03-16T15:15:28;101409.25;;;6.60;93.34
49055;BME280;35405;52.344;14.530;2023-03-16T15:17:53;101411.16;;;6.59;93.36
49055;BME280;35405;52.344;14.530;2023-03-16T15:20:20;101410.56;;;6.57;93.57
49055;BME280;35405;52.344;14.530;2023-03-16T15:22:48;101407.78;;;6.52;94.14
49055;BME280;35405;52.344;14.530;2023-03-16T15:27:51;101392.88;;;6.50;92.25
49055;BME280;35405;52.344;14.530;2023-03-16T15:30:20;101385.19;;;6.41;95.59
49055;BME280;35405;52.344;14.530;2023-03-16T15:32:46;101388.94;;;6.40;97.51
49055;BME280;35405;52.344;14.530;2023-03-16T15:35:11;101387.00;;;6.36;98.47
49055;BME280;35405;52.344;14.530;2023-03-16T15:37:36;101399.59;;;6.47;93.37
49055;BME280;35405;52.344;14.530;2023-03-16T15:40:12;101392.53;;;6.46;92.91
49055;BME280;35405;52.344;14.530;2023-03-16T15:42:39;101395.84;;;6.48;93.40
49055;BME280;35405;52.344;14.530;2023-03-16T15:45:07;101390.84;;;6.40;94.71
49055;BME280;35405;52.344;14.530;2023-03-16T15:47:34;101390.00;;;6.23;98.97
49055;BME280;35405;52.344;14.530;2023-03-16T15:50:00;101391.34;;;6.20;97.06
49055;BME280;35405;52.344;14.530;2023-03-16T15:52:34;101392.38;;;6.19;97.24
49055;BME280;35405;52.344;14.530;2023-03-16T15:55:01;101391.56;;;6.18;98.27
49055;BME280;35405;52.344;14.530;2023-03-16T15:57:47;101399.00;;;6.28;92.79
49055;BME280;35405;52.344;14.530;2023-03-16T16:00:46;101390.59;;;6.25;93.95
49055;BME280;35405;52.344;14.530;2023-03-16T16:03:05;101388.69;;;6.25;90.80
49055;BME280;35405;52.344;14.530;2023-03-16T16:05:31;101387.56;;;6.21;92.50
49055;BME280;35405;52.344;14.530;2023-03-16T16:07:56;101390.66;;;6.13;88.51
49055;BME280;35405;52.344;14.530;2023-03-16T16:10:28;101384.72;;;6.11;89.72
49055;BME280;35405;52.344;14.530;2023-03-16T16:12:54;101388.44;;;6.10;90.68
49055;BME280;35405;52.344;14.530;2023-03-16T16:17:46;101376.84;;;6.09;89.53
49055;BME280;35405;52.344;14.530;2023-03-16T16:23:15;101372.09;;;6.00;89.95
49055;BME280;35405;52.344;14.530;2023-03-16T16:25:40;101379.28;;;5.94;91.72
49055;BME280;35405;52.344;14.530;2023-03-16T16:28:16;101379.88;;;5.84;89.04
49055;BME280;35405;52.344;14.530;2023-03-16T16:30:42;101372.03;;;5.83;91.53
49055;BME280;35405;52.344;14.530;2023-03-16T16:45:20;101382.03;;;5.54;92.31
49055;BME280;35405;52.344;14.530;2023-03-16T16:53:56;101379.56;;;5.12;96.40
49055;BME280;35405;52.344;14.530;2023-03-16T17:02:30;101379.97;;;4.80;99.49
49055;BME280;35405;52.344;14.530;2023-03-16T17:05:01;101389.66;;;4.81;100.00
49055;BME280;35405;52.344;14.530;2023-03-16T17:07:26;101389.44;;;4.71;100.00
49055;BME280;35405;52.344;14.530;2023-03-16T17:09:51;101388.16;;;4.62;100.00
49055;BME280;35405;52.344;14.530;2023-03-16T17:12:17;101392.97;;;4.59;100.00
49055;BME280;35405;52.344;14.530;2023-03-16T17:14:45;101382.19;;;4.48;100.00
49055;BME280;35405;52.344;14.530;2023-03-16T17:17:14;101380.81;;;4.45;100.00
49055;BME280;35405;52.344;14.530;2023-03-16T17:19:41;101380.66;;;4.40;100.00
49055;BME280;35405;52.344;14.530;2023-03-16T17:22:17;101374.09;;;4.36;100.00
49055;BME280;35405;52.344;14.530;2023-03-16T17:24:43;101377.72;;;4.30;100.00
49055;BME280;35405;52.344;14.530;2023-03-16T17:27:08;101375.00;;;4.18;100.00
49055;BME280;35405;52.344;14.530;2023-03-16T17:29:38;101373.47;;;4.10;100.00
49055;BME280;35405;52.344;14.530;2023-03-16T17:32:09;101379.31;;;3.96;100.00
49055;BME280;35405;52.344;14.530;2023-03-16T17:34:35;101378.66;;;3.82;100.00
49055;BME280;35405;52.344;14.530;2023-03-16T17:37:01;101368.81;;;3.76;100.00
49055;BME280;35405;52.344;14.530;2023-03-16T17:39:27;101371.03;;;3.67;100.00
49055;BME280;35405;52.344;14.530;2023-03-16T17:41:54;101371.72;;;3.62;100.00
49055;BME280;35405;52.344;14.530;2023-03-16T17:44:19;101369.94;;;3.56;100.00
49055;BME280;35405;52.344;14.530;2023-03-16T17:46:45;101368.00;;;3.45;100.00
49055;BME280;35405;52.344;14.530;2023-03-16T17:49:11;101358.97;;;3.39;100.00
49055;BME280;35405;52.344;14.530;2023-03-16T17:51:37;101357.81;;;3.35;100.00
49055;BME280;35405;52.344;14.530;2023-03-16T17:54:03;101370.28;;;3.30;100.00
49055;BME280;35405;52.344;14.530;2023-03-16T17:56:29;101370.00;;;3.19;100.00
49055;BME280;35405;52.344;14.530;2023-03-16T17:58:55;101369.25;;;3.12;100.00
49055;BME280;35405;52.344;14.530;2023-03-16T18:01:28;101366.78;;;3.11;100.00
49055;BME280;35405;52.344;14.530;2023-03-16T18:03:54;101375.69;;;3.11;100.00
49055;BME280;35405;52.344;14.530;2023-03-16T18:06:23;101381.78;;;3.00;100.00
49055;BME280;35405;52.344;14.530;2023-03-16T18:08:50;101380.59;;;2.96;100.00
49055;BME280;35405;52.344;14.530;2023-03-16T18:11:23;101379.56;;;2.97;100.00
49055;BME280;35405;52.344;14.530;2023-03-16T18:13:50;101373.16;;;2.98;100.00
49055;BME280;35405;52.344;14.530;2023-03-16T18:16:16;101376.06;;;2.96;100.00
49055;BME280;35405;52.344;14.530;2023-03-16T18:18:44;101385.25;;;2.89;100.00
49055;BME280;35405;52.344;14.530;2023-03-16T18:21:16;101381.13;;;2.86;100.00
49055;BME280;35405;52.344;14.530;2023-03-16T18:23:42;101386.09;;;2.83;100.00
49055;BME280;35405;52.344;14.530;2023-03-16T18:26:08;101382.06;;;2.73;100.00
49055;BME280;35405;52.344;14.530;2023-03-16T18:28:35;101389.81;;;2.63;100.00
49055;BME280;35405;52.344;14.530;2023-03-16T18:31:00;101390.91;;;2.56;100.00
49055;BME280;35405;52.344;14.530;2023-03-16T18:33:37;101386.38;;;2.56;100.00
49055;BME280;35405;52.344;14.530;2023-03-16T18:36:04;101388.03;;;2.57;100.00
49055;BME280;35405;52.344;14.530;2023-03-16T18:38:34;101380.78;;;2.58;100.00
49055;BME280;35405;52.344;14.530;2023-03-16T18:41:24;101375.66;;;2.56;100.00
49055;BME280;35405;52.344;14.530;2023-03-16T18:43:49;101367.72;;;2.61;100.00
49055;BME280;35405;52.344;14.530;2023-03-16T18:46:19;101365.22;;;2.66;100.00
49055;BME280;35405;52.344;14.530;2023-03-16T18:48:45;101360.66;;;2.67;100.00
49055;BME280;35405;52.344;14.530;2023-03-16T18:51:11;101372.66;;;2.64;100.00
49055;BME280;35405;52.344;14.530;2023-03-16T18:53:38;101366.31;;;2.59;100.00
49055;BME280;35405;52.344;14.530;2023-03-16T18:56:03;101373.72;;;2.63;100.00
49055;BME280;35405;52.344;14.530;2023-03-16T18:58:28;101362.97;;;2.63;100.00
49055;BME280;35405;52.344;14.530;2023-03-16T19:00:55;101369.84;;;2.59;100.00
49055;BME280;35405;52.344;14.530;2023-03-16T19:03:30;101370.28;;;2.56;100.00
49055;BME280;35405;52.344;14.530;2023-03-16T19:05:57;101360.88;;;2.65;100.00
49055;BME280;35405;52.344;14.530;2023-03-16T19:08:29;101354.84;;;2.70;100.00
49055;BME280;35405;52.344;14.530;2023-03-16T19:11:12;101347.66;;;2.64;100.00
49055;BME280;35405;52.344;14.530;2023-03-16T19:13:37;101339.69;;;2.57;100.00
49055;BME280;35405;52.344;14.530;2023-03-16T19:16:08;101347.50;;;2.59;100.00
49055;BME280;35405;52.344;14.530;2023-03-16T19:18:51;101351.75;;;2.48;100.00
49055;BME280;35405;52.344;14.530;2023-03-16T19:27:39;101365.34;;;2.53;100.00
49055;BME280;35405;52.344;14.530;2023-03-16T19:30:05;101364.91;;;2.56;100.00
49055;BME280;35405;52.344;14.530;2023-03-16T19:32:41;101354.97;;;2.57;100.00
49055;BME280;35405;52.344;14.530;2023-03-16T19:35:14;101347.56;;;2.52;100.00
49055;BME280;35405;52.344;14.530;2023-03-16T19:37:39;101344.31;;;2.50;100.00
49055;BME280;35405;52.344;14.530;2023-03-16T19:40:05;101349.28;;;2.46;100.00
49055;BME280;35405;52.344;14.530;2023-03-16T19:42:31;101348.09;;;2.42;100.00
49055;BME280;35405;52.344;14.530;2023-03-16T19:45:00;101350.69;;;2.31;100.00
49055;BME280;35405;52.344;14.530;2023-03-16T19:47:27;101341.19;;;2.28;100.00
49055;BME280;35405;52.344;14.530;2023-03-16T19:49:54;101343.13;;;2.21;100.00
49055;BME280;35405;52.344;14.530;2023-03-16T19:52:20;101343.75;;;2.23;100.00
49055;BME280;35405;52.344;14.530;2023-03-16T19:54:45;101343.31;;;2.19;100.00
49055;BME280;35405;52.344;14.530;2023-03-16T19:57:12;101343.31;;;2.19;100.00
49055;BME280;35405;52.344;14.530;2023-03-16T19:59:38;101344.19;;;2.20;100.00
49055;BME280;35405;52.344;14.530;2023-03-16T20:04:48;101343.13;;;2.21;100.00
49055;BME280;35405;52.344;14.530;2023-03-16T20:07:16;101347.50;;;2.15;100.00
49055;BME280;35405;52.344;14.530;2023-03-16T20:09:41;101351.50;;;2.06;100.00
49055;BME280;35405;52.344;14.530;2023-03-16T20:12:13;101348.81;;;2.06;100.00
49055;BME280;35405;52.344;14.530;2023-03-16T20:14:44;101334.03;;;1.97;100.00
49055;BME280;35405;52.344;14.530;2023-03-16T20:17:09;101339.66;;;1.89;100.00
49055;BME280;35405;52.344;14.530;2023-03-16T20:19:37;101334.53;;;1.87;100.00
49055;BME280;35405;52.344;14.530;2023-03-16T20:22:05;101332.88;;;1.86;100.00
49055;BME280;35405;52.344;14.530;2023-03-16T20:24:30;101338.66;;;1.83;100.00
49055;BME280;35405;52.344;14.530;2023-03-16T20:26:56;101332.53;;;1.76;100.00
49055;BME280;35405;52.344;14.530;2023-03-16T20:29:31;101341.00;;;1.73;100.00
49055;BME280;35405;52.344;14.530;2023-03-16T20:31:57;101336.28;;;1.68;100.00
49055;BME280;35405;52.344;14.530;2023-03-16T20:34:24;101336.72;;;1.65;100.00
49055;BME280;35405;52.344;14.530;2023-03-16T20:36:50;101341.94;;;1.60;100.00
49055;BME280;35405;52.344;14.530;2023-03-16T20:39:15;101336.34;;;1.62;100.00
49055;BME280;35405;52.344;14.530;2023-03-16T20:41:40;101326.66;;;1.60;100.00
49055;BME280;35405;52.344;14.530;2023-03-16T20:44:27;101328.97;;;1.57;100.00
49055;BME280;35405;52.344;14.530;2023-03-16T20:46:54;101326.09;;;1.52;100.00
49055;BME280;35405;52.344;14.530;2023-03-16T20:51:49;101335.44;;;1.43;100.00
49055;BME280;35405;52.344;14.530;2023-03-16T20:54:14;101322.63;;;1.45;100.00
49055;BME280;35405;52.344;14.530;2023-03-16T20:56:40;101323.66;;;1.44;100.00